Aviation Digital Data Service (ADDS)

Output produced by METARs form (1545 UTC 25 June 2017)
found at http://aviationweather.gov/adds/metars/
 
KPOU 251135Z 2512/2612 00000KT P6SM SKC 
     FM251600 24009G17KT P6SM BKN060 
     FM252300 26005KT P6SM SCT060 
     FM260600 00000KT P6SM FEW060